sensor_id;sensor_type;location;lat;lon;timestamp;temperature;humidity
32217;DHT22;67098;51.140;4.088;2024-03-08T00:00:09;8.20;92.90
32217;DHT22;67098;51.140;4.088;2024-03-08T00:02:41;8.20;92.80
32217;DHT22;67098;51.140;4.088;2024-03-08T00:05:08;8.00;93.10
32217;DHT22;67098;51.140;4.088;2024-03-08T00:07:38;8.00;93.20
32217;DHT22;67098;51.140;4.088;2024-03-08T00:10:06;8.00;93.30
32217;DHT22;67098;51.140;4.088;2024-03-08T00:12:33;7.90;93.50
32217;DHT22;67098;51.140;4.088;2024-03-08T00:14:59;8.00;93.40
32217;DHT22;67098;51.140;4.088;2024-03-08T00:17:25;8.00;93.40
32217;DHT22;67098;51.140;4.088;2024-03-08T00:19:51;8.10;93.20
32217;DHT22;67098;51.140;4.088;2024-03-08T00:22:17;8.00;93.30
32217;DHT22;67098;51.140;4.088;2024-03-08T00:24:43;7.90;93.40
32217;DHT22;67098;51.140;4.088;2024-03-08T00:27:09;7.90;93.60
32217;DHT22;67098;51.140;4.088;2024-03-08T00:29:37;7.90;93.60
32217;DHT22;67098;51.140;4.088;2024-03-08T00:32:04;7.80;93.50
32217;DHT22;67098;51.140;4.088;2024-03-08T00:34:30;7.90;93.60
32217;DHT22;67098;51.140;4.088;2024-03-08T00:36:57;7.80;93.60
32217;DHT22;67098;51.140;4.088;2024-03-08T00:39:23;7.90;93.50
32217;DHT22;67098;51.140;4.088;2024-03-08T00:41:51;7.80;93.40
32217;DHT22;67098;51.140;4.088;2024-03-08T00:44:16;7.80;93.60
32217;DHT22;67098;51.140;4.088;2024-03-08T00:46:42;7.70;93.50
32217;DHT22;67098;51.140;4.088;2024-03-08T00:49:08;7.70;93.60
32217;DHT22;67098;51.140;4.088;2024-03-08T00:51:35;7.70;93.60
32217;DHT22;67098;51.140;4.088;2024-03-08T00:54:01;7.80;93.50
32217;DHT22;67098;51.140;4.088;2024-03-08T00:56:27;7.70;93.40
32217;DHT22;67098;51.140;4.088;2024-03-08T00:58:53;7.60;93.50
32217;DHT22;67098;51.140;4.088;2024-03-08T01:01:19;7.60;93.50
32217;DHT22;67098;51.140;4.088;2024-03-08T01:03:45;7.60;93.30
32217;DHT22;67098;51.140;4.088;2024-03-08T01:06:11;7.60;93.30
32217;DHT22;67098;51.140;4.088;2024-03-08T01:08:37;7.50;93.40
32217;DHT22;67098;51.140;4.088;2024-03-08T01:11:08;7.60;93.30
32217;DHT22;67098;51.140;4.088;2024-03-08T01:13:35;7.60;93.10
32217;DHT22;67098;51.140;4.088;2024-03-08T01:16:01;7.70;93.10
32217;DHT22;67098;51.140;4.088;2024-03-08T01:18:27;7.70;92.90
32217;DHT22;67098;51.140;4.088;2024-03-08T01:20:53;7.60;92.90
32217;DHT22;67098;51.140;4.088;2024-03-08T01:23:18;7.60;93.00
32217;DHT22;67098;51.140;4.088;2024-03-08T01:25:45;7.60;92.90
32217;DHT22;67098;51.140;4.088;2024-03-08T01:28:11;7.60;92.80
32217;DHT22;67098;51.140;4.088;2024-03-08T01:30:38;7.70;92.60
32217;DHT22;67098;51.140;4.088;2024-03-08T01:33:04;7.60;92.70
32217;DHT22;67098;51.140;4.088;2024-03-08T01:35:30;7.60;92.70
32217;DHT22;67098;51.140;4.088;2024-03-08T01:37:56;7.50;92.80
32217;DHT22;67098;51.140;4.088;2024-03-08T01:40:22;7.50;92.70
32217;DHT22;67098;51.140;4.088;2024-03-08T01:42:48;7.50;92.50
32217;DHT22;67098;51.140;4.088;2024-03-08T01:45:14;7.50;92.50
32217;DHT22;67098;51.140;4.088;2024-03-08T01:47:40;7.40;92.60
32217;DHT22;67098;51.140;4.088;2024-03-08T01:50:06;7.50;92.50
32217;DHT22;67098;51.140;4.088;2024-03-08T01:52:34;7.50;92.40
32217;DHT22;67098;51.140;4.088;2024-03-08T01:55:02;7.50;92.30
32217;DHT22;67098;51.140;4.088;2024-03-08T01:57:29;7.40;92.30
32217;DHT22;67098;51.140;4.088;2024-03-08T01:59:56;7.50;92.30
32217;DHT22;67098;51.140;4.088;2024-03-08T02:02:22;7.50;92.20
32217;DHT22;67098;51.140;4.088;2024-03-08T02:04:48;7.30;92.20
32217;DHT22;67098;51.140;4.088;2024-03-08T02:07:18;7.30;92.30
32217;DHT22;67098;51.140;4.088;2024-03-08T02:09:44;7.40;92.20
32217;DHT22;67098;51.140;4.088;2024-03-08T02:12:10;7.40;92.10
32217;DHT22;67098;51.140;4.088;2024-03-08T02:14:35;7.30;92.00
32217;DHT22;67098;51.140;4.088;2024-03-08T02:17:02;7.40;91.90
32217;DHT22;67098;51.140;4.088;2024-03-08T02:19:28;7.30;91.90
32217;DHT22;67098;51.140;4.088;2024-03-08T02:21:54;7.30;91.90
32217;DHT22;67098;51.140;4.088;2024-03-08T02:24:20;7.20;91.90
32217;DHT22;67098;51.140;4.088;2024-03-08T02:26:46;7.10;92.10
32217;DHT22;67098;51.140;4.088;2024-03-08T02:29:12;7.00;92.20
32217;DHT22;67098;51.140;4.088;2024-03-08T02:31:40;7.00;92.20
32217;DHT22;67098;51.140;4.088;2024-03-08T02:34:05;7.00;92.20
32217;DHT22;67098;51.140;4.088;2024-03-08T02:36:31;6.90;92.10
32217;DHT22;67098;51.140;4.088;2024-03-08T02:39:02;6.90;92.20
32217;DHT22;67098;51.140;4.088;2024-03-08T02:41:28;6.90;92.20
32217;DHT22;67098;51.140;4.088;2024-03-08T02:43:53;6.90;92.20
32217;DHT22;67098;51.140;4.088;2024-03-08T02:46:20;6.80;92.10
32217;DHT22;67098;51.140;4.088;2024-03-08T02:48:46;6.80;92.20
32217;DHT22;67098;51.140;4.088;2024-03-08T02:51:12;6.80;92.10
32217;DHT22;67098;51.140;4.088;2024-03-08T02:53:39;6.90;91.90
32217;DHT22;67098;51.140;4.088;2024-03-08T02:56:05;6.80;91.80
32217;DHT22;67098;51.140;4.088;2024-03-08T02:58:34;6.80;91.90
32217;DHT22;67098;51.140;4.088;2024-03-08T03:01:00;6.80;91.90
32217;DHT22;67098;51.140;4.088;2024-03-08T03:03:26;6.80;91.80
32217;DHT22;67098;51.140;4.088;2024-03-08T03:05:52;6.80;91.70
32217;DHT22;67098;51.140;4.088;2024-03-08T03:08:21;6.80;91.60
32217;DHT22;67098;51.140;4.088;2024-03-08T03:10:47;6.70;91.70
32217;DHT22;67098;51.140;4.088;2024-03-08T03:13:13;6.70;91.80
32217;DHT22;67098;51.140;4.088;2024-03-08T03:15:40;6.60;91.80
32217;DHT22;67098;51.140;4.088;2024-03-08T03:18:08;6.60;91.80
32217;DHT22;67098;51.140;4.088;2024-03-08T03:20:34;6.60;91.70
32217;DHT22;67098;51.140;4.088;2024-03-08T03:23:05;6.60;91.70
32217;DHT22;67098;51.140;4.088;2024-03-08T03:25:33;6.60;91.60
32217;DHT22;67098;51.140;4.088;2024-03-08T03:28:03;6.50;91.70
32217;DHT22;67098;51.140;4.088;2024-03-08T03:30:30;6.50;91.90
32217;DHT22;67098;51.140;4.088;2024-03-08T03:32:59;6.60;91.60
32217;DHT22;67098;51.140;4.088;2024-03-08T03:35:43;6.50;91.60
32217;DHT22;67098;51.140;4.088;2024-03-08T03:38:09;6.50;91.50
32217;DHT22;67098;51.140;4.088;2024-03-08T03:40:39;6.50;91.60
32217;DHT22;67098;51.140;4.088;2024-03-08T03:43:08;6.50;91.60
32217;DHT22;67098;51.140;4.088;2024-03-08T03:45:35;6.50;91.70
32217;DHT22;67098;51.140;4.088;2024-03-08T03:48:02;6.50;91.60
32217;DHT22;67098;51.140;4.088;2024-03-08T03:50:28;6.50;91.60
32217;DHT22;67098;51.140;4.088;2024-03-08T03:52:54;6.50;91.40
32217;DHT22;67098;51.140;4.088;2024-03-08T03:55:20;6.40;91.50
32217;DHT22;67098;51.140;4.088;2024-03-08T03:57:47;6.30;91.60
32217;DHT22;67098;51.140;4.088;2024-03-08T04:00:14;6.30;91.60
32217;DHT22;67098;51.140;4.088;2024-03-08T04:02:40;6.40;91.50
32217;DHT22;67098;51.140;4.088;2024-03-08T04:05:07;6.40;91.50
32217;DHT22;67098;51.140;4.088;2024-03-08T04:07:34;6.30;91.50
32217;DHT22;67098;51.140;4.088;2024-03-08T04:10:03;6.40;91.30
32217;DHT22;67098;51.140;4.088;2024-03-08T04:12:29;6.40;91.50
32217;DHT22;67098;51.140;4.088;2024-03-08T04:14:55;6.40;91.50
32217;DHT22;67098;51.140;4.088;2024-03-08T04:17:21;6.30;91.50
32217;DHT22;67098;51.140;4.088;2024-03-08T04:19:47;6.30;91.50
32217;DHT22;67098;51.140;4.088;2024-03-08T04:22:14;6.20;91.60
32217;DHT22;67098;51.140;4.088;2024-03-08T04:24:39;6.20;91.80
32217;DHT22;67098;51.140;4.088;2024-03-08T04:27:06;6.10;91.70
32217;DHT22;67098;51.140;4.088;2024-03-08T04:29:32;6.10;91.60
32217;DHT22;67098;51.140;4.088;2024-03-08T04:32:04;6.10;91.80
32217;DHT22;67098;51.140;4.088;2024-03-08T04:34:33;6.10;91.70
32217;DHT22;67098;51.140;4.088;2024-03-08T04:37:00;6.00;91.80
32217;DHT22;67098;51.140;4.088;2024-03-08T04:39:27;6.10;91.70
32217;DHT22;67098;51.140;4.088;2024-03-08T04:41:57;6.20;91.60
32217;DHT22;67098;51.140;4.088;2024-03-08T04:44:23;6.10;91.60
32217;DHT22;67098;51.140;4.088;2024-03-08T04:46:50;6.10;91.60
32217;DHT22;67098;51.140;4.088;2024-03-08T04:49:16;6.00;91.70
32217;DHT22;67098;51.140;4.088;2024-03-08T04:51:42;6.00;91.70
32217;DHT22;67098;51.140;4.088;2024-03-08T04:54:08;6.00;91.60
32217;DHT22;67098;51.140;4.088;2024-03-08T04:56:33;6.10;91.60
32217;DHT22;67098;51.140;4.088;2024-03-08T04:58:59;6.10;91.60
32217;DHT22;67098;51.140;4.088;2024-03-08T05:01:25;6.10;91.50
32217;DHT22;67098;51.140;4.088;2024-03-08T05:03:51;6.00;91.60
32217;DHT22;67098;51.140;4.088;2024-03-08T05:06:21;6.00;91.50
32217;DHT22;67098;51.140;4.088;2024-03-08T05:08:46;5.90;91.70
32217;DHT22;67098;51.140;4.088;2024-03-08T05:11:12;5.90;91.70
32217;DHT22;67098;51.140;4.088;2024-03-08T05:13:40;5.90;91.70
32217;DHT22;67098;51.140;4.088;2024-03-08T05:16:06;5.90;91.70
32217;DHT22;67098;51.140;4.088;2024-03-08T05:18:35;5.80;91.80
32217;DHT22;67098;51.140;4.088;2024-03-08T05:21:02;5.90;91.70
32217;DHT22;67098;51.140;4.088;2024-03-08T05:23:30;6.00;91.60
32217;DHT22;67098;51.140;4.088;2024-03-08T05:25:56;5.90;91.60
32217;DHT22;67098;51.140;4.088;2024-03-08T05:28:23;5.90;91.70
32217;DHT22;67098;51.140;4.088;2024-03-08T05:30:48;6.00;91.70
32217;DHT22;67098;51.140;4.088;2024-03-08T05:33:14;5.90;91.60
32217;DHT22;67098;51.140;4.088;2024-03-08T05:35:40;5.90;91.60
32217;DHT22;67098;51.140;4.088;2024-03-08T05:38:06;6.00;91.60
32217;DHT22;67098;51.140;4.088;2024-03-08T05:40:32;6.00;91.40
32217;DHT22;67098;51.140;4.088;2024-03-08T05:42:59;6.00;91.50
32217;DHT22;67098;51.140;4.088;2024-03-08T05:45:25;5.90;91.50
32217;DHT22;67098;51.140;4.088;2024-03-08T05:47:52;6.00;91.50
32217;DHT22;67098;51.140;4.088;2024-03-08T05:50:17;5.90;91.50
32217;DHT22;67098;51.140;4.088;2024-03-08T05:52:43;5.90;91.50
32217;DHT22;67098;51.140;4.088;2024-03-08T05:55:09;5.90;91.60
32217;DHT22;67098;51.140;4.088;2024-03-08T05:57:35;5.90;91.60
32217;DHT22;67098;51.140;4.088;2024-03-08T06:00:05;5.90;91.50
32217;DHT22;67098;51.140;4.088;2024-03-08T06:02:31;5.70;91.70
32217;DHT22;67098;51.140;4.088;2024-03-08T06:04:57;5.70;91.80
32217;DHT22;67098;51.140;4.088;2024-03-08T06:07:23;5.70;91.80
32217;DHT22;67098;51.140;4.088;2024-03-08T06:09:49;5.70;91.70
32217;DHT22;67098;51.140;4.088;2024-03-08T06:12:15;5.70;91.80
32217;DHT22;67098;51.140;4.088;2024-03-08T06:14:45;5.60;91.90
32217;DHT22;67098;51.140;4.088;2024-03-08T06:17:11;5.60;91.90
32217;DHT22;67098;51.140;4.088;2024-03-08T06:19:37;5.60;92.00
32217;DHT22;67098;51.140;4.088;2024-03-08T06:22:03;5.60;92.00
32217;DHT22;67098;51.140;4.088;2024-03-08T06:24:33;5.60;92.10
32217;DHT22;67098;51.140;4.088;2024-03-08T06:27:02;5.70;92.00
32217;DHT22;67098;51.140;4.088;2024-03-08T06:29:27;5.70;91.90
32217;DHT22;67098;51.140;4.088;2024-03-08T06:31:53;5.70;91.90
32217;DHT22;67098;51.140;4.088;2024-03-08T06:34:19;5.60;91.90
32217;DHT22;67098;51.140;4.088;2024-03-08T06:36:45;5.70;91.80
32217;DHT22;67098;51.140;4.088;2024-03-08T06:39:11;5.80;91.70
32217;DHT22;67098;51.140;4.088;2024-03-08T06:41:37;5.80;91.80
32217;DHT22;67098;51.140;4.088;2024-03-08T06:44:03;5.70;91.80
32217;DHT22;67098;51.140;4.088;2024-03-08T06:46:30;5.70;91.80
32217;DHT22;67098;51.140;4.088;2024-03-08T06:48:55;5.70;91.80
32217;DHT22;67098;51.140;4.088;2024-03-08T06:51:22;5.70;91.90
32217;DHT22;67098;51.140;4.088;2024-03-08T06:53:47;5.70;92.00
32217;DHT22;67098;51.140;4.088;2024-03-08T06:56:14;5.70;91.90
32217;DHT22;67098;51.140;4.088;2024-03-08T06:58:41;5.70;92.00
32217;DHT22;67098;51.140;4.088;2024-03-08T07:01:07;5.90;91.90
32217;DHT22;67098;51.140;4.088;2024-03-08T07:03:41;5.90;91.80
32217;DHT22;67098;51.140;4.088;2024-03-08T07:06:11;5.90;91.70
32217;DHT22;67098;51.140;4.088;2024-03-08T07:08:36;5.80;91.80
32217;DHT22;67098;51.140;4.088;2024-03-08T07:11:02;6.00;91.80
32217;DHT22;67098;51.140;4.088;2024-03-08T07:13:29;6.10;91.70
32217;DHT22;67098;51.140;4.088;2024-03-08T07:15:56;6.10;91.60
32217;DHT22;67098;51.140;4.088;2024-03-08T07:18:21;6.20;91.50
32217;DHT22;67098;51.140;4.088;2024-03-08T07:20:47;6.30;91.40
32217;DHT22;67098;51.140;4.088;2024-03-08T07:23:15;6.20;91.40
32217;DHT22;67098;51.140;4.088;2024-03-08T07:26:00;6.30;91.30
32217;DHT22;67098;51.140;4.088;2024-03-08T07:28:27;6.40;91.20
32217;DHT22;67098;51.140;4.088;2024-03-08T07:30:53;6.40;91.30
32217;DHT22;67098;51.140;4.088;2024-03-08T07:33:27;6.30;91.40
32217;DHT22;67098;51.140;4.088;2024-03-08T07:35:53;6.30;91.50
32217;DHT22;67098;51.140;4.088;2024-03-08T07:38:18;6.50;91.30
32217;DHT22;67098;51.140;4.088;2024-03-08T07:40:46;6.70;91.10
32217;DHT22;67098;51.140;4.088;2024-03-08T07:43:13;6.70;91.00
32217;DHT22;67098;51.140;4.088;2024-03-08T07:45:39;6.90;90.70
32217;DHT22;67098;51.140;4.088;2024-03-08T07:48:06;7.10;90.50
32217;DHT22;67098;51.140;4.088;2024-03-08T07:50:39;7.20;90.20
32217;DHT22;67098;51.140;4.088;2024-03-08T07:53:05;7.20;90.20
32217;DHT22;67098;51.140;4.088;2024-03-08T07:55:34;7.30;90.10
32217;DHT22;67098;51.140;4.088;2024-03-08T07:58:01;7.40;90.00
32217;DHT22;67098;51.140;4.088;2024-03-08T08:00:28;7.50;90.00
32217;DHT22;67098;51.140;4.088;2024-03-08T08:02:55;7.60;89.30
32217;DHT22;67098;51.140;4.088;2024-03-08T08:05:21;7.70;89.30
32217;DHT22;67098;51.140;4.088;2024-03-08T08:07:47;7.80;88.90
32217;DHT22;67098;51.140;4.088;2024-03-08T08:10:13;7.90;89.00
32217;DHT22;67098;51.140;4.088;2024-03-08T08:12:44;8.00;88.50
32217;DHT22;67098;51.140;4.088;2024-03-08T08:15:10;8.10;88.00
32217;DHT22;67098;51.140;4.088;2024-03-08T08:17:36;8.10;87.60
32217;DHT22;67098;51.140;4.088;2024-03-08T08:20:01;8.20;87.70
32217;DHT22;67098;51.140;4.088;2024-03-08T08:22:30;8.30;87.60
32217;DHT22;67098;51.140;4.088;2024-03-08T08:24:56;8.50;86.90
32217;DHT22;67098;51.140;4.088;2024-03-08T08:27:22;8.40;86.90
32217;DHT22;67098;51.140;4.088;2024-03-08T08:29:48;8.60;86.70
32217;DHT22;67098;51.140;4.088;2024-03-08T08:32:15;8.70;86.20
32217;DHT22;67098;51.140;4.088;2024-03-08T08:34:41;8.80;86.10
32217;DHT22;67098;51.140;4.088;2024-03-08T08:37:07;9.00;86.30
32217;DHT22;67098;51.140;4.088;2024-03-08T08:39:35;9.30;85.90
32217;DHT22;67098;51.140;4.088;2024-03-08T08:42:01;9.20;85.00
32217;DHT22;67098;51.140;4.088;2024-03-08T08:44:29;9.40;84.60
32217;DHT22;67098;51.140;4.088;2024-03-08T08:46:57;9.40;84.50
32217;DHT22;67098;51.140;4.088;2024-03-08T08:49:22;9.60;83.90
32217;DHT22;67098;51.140;4.088;2024-03-08T08:51:52;9.60;84.00
32217;DHT22;67098;51.140;4.088;2024-03-08T08:54:19;9.80;84.10
32217;DHT22;67098;51.140;4.088;2024-03-08T08:56:46;9.80;83.80
32217;DHT22;67098;51.140;4.088;2024-03-08T08:59:13;9.70;83.40
32217;DHT22;67098;51.140;4.088;2024-03-08T09:01:45;9.60;83.70
32217;DHT22;67098;51.140;4.088;2024-03-08T09:04:15;9.50;83.80
32217;DHT22;67098;51.140;4.088;2024-03-08T09:06:42;9.40;84.20
32217;DHT22;67098;51.140;4.088;2024-03-08T09:09:07;9.40;84.00
32217;DHT22;67098;51.140;4.088;2024-03-08T09:11:38;9.20;84.70
32217;DHT22;67098;51.140;4.088;2024-03-08T09:14:07;9.00;85.00
32217;DHT22;67098;51.140;4.088;2024-03-08T09:16:34;9.00;85.40
32217;DHT22;67098;51.140;4.088;2024-03-08T09:19:00;9.00;85.50
32217;DHT22;67098;51.140;4.088;2024-03-08T09:21:27;9.10;85.50
32217;DHT22;67098;51.140;4.088;2024-03-08T09:23:53;9.30;84.80
32217;DHT22;67098;51.140;4.088;2024-03-08T09:26:19;9.50;85.00
32217;DHT22;67098;51.140;4.088;2024-03-08T09:28:45;9.50;84.20
32217;DHT22;67098;51.140;4.088;2024-03-08T09:31:11;9.60;83.80
32217;DHT22;67098;51.140;4.088;2024-03-08T09:33:37;9.70;83.20
32217;DHT22;67098;51.140;4.088;2024-03-08T09:36:06;9.60;83.50
32217;DHT22;67098;51.140;4.088;2024-03-08T09:38:33;9.60;84.50
32217;DHT22;67098;51.140;4.088;2024-03-08T09:41:02;9.70;84.20
32217;DHT22;67098;51.140;4.088;2024-03-08T09:43:29;9.80;83.20
32217;DHT22;67098;51.140;4.088;2024-03-08T09:45:57;10.00;82.80
32217;DHT22;67098;51.140;4.088;2024-03-08T09:48:23;10.10;82.20
32217;DHT22;67098;51.140;4.088;2024-03-08T09:50:51;10.20;82.20
32217;DHT22;67098;51.140;4.088;2024-03-08T09:53:17;10.20;82.00
32217;DHT22;67098;51.140;4.088;2024-03-08T09:55:43;10.30;81.20
32217;DHT22;67098;51.140;4.088;2024-03-08T09:58:15;10.40;81.40
32217;DHT22;67098;51.140;4.088;2024-03-08T10:00:45;10.60;81.00
32217;DHT22;67098;51.140;4.088;2024-03-08T10:03:13;10.80;81.30
32217;DHT22;67098;51.140;4.088;2024-03-08T10:05:41;11.00;80.30
32217;DHT22;67098;51.140;4.088;2024-03-08T10:08:07;11.20;79.40
32217;DHT22;67098;51.140;4.088;2024-03-08T10:10:39;11.20;79.00
32217;DHT22;67098;51.140;4.088;2024-03-08T10:13:09;11.30;78.70
32217;DHT22;67098;51.140;4.088;2024-03-08T10:15:36;11.50;77.90
32217;DHT22;67098;51.140;4.088;2024-03-08T10:18:02;11.80;78.00
32217;DHT22;67098;51.140;4.088;2024-03-08T10:20:30;11.90;77.50
32217;DHT22;67098;51.140;4.088;2024-03-08T10:23:03;12.00;77.10
32217;DHT22;67098;51.140;4.088;2024-03-08T10:25:31;12.30;77.10
32217;DHT22;67098;51.140;4.088;2024-03-08T10:27:57;12.60;76.90
32217;DHT22;67098;51.140;4.088;2024-03-08T10:30:23;12.90;76.20
32217;DHT22;67098;51.140;4.088;2024-03-08T10:32:49;13.10;74.30
32217;DHT22;67098;51.140;4.088;2024-03-08T10:35:15;13.40;75.10
32217;DHT22;67098;51.140;4.088;2024-03-08T10:37:49;13.60;73.50
32217;DHT22;67098;51.140;4.088;2024-03-08T10:40:24;13.90;73.00
32217;DHT22;67098;51.140;4.088;2024-03-08T10:42:56;14.30;72.30
32217;DHT22;67098;51.140;4.088;2024-03-08T10:45:39;14.60;70.50
32217;DHT22;67098;51.140;4.088;2024-03-08T10:50:47;15.20;70.20
32217;DHT22;67098;51.140;4.088;2024-03-08T10:53:18;15.40;68.50
32217;DHT22;67098;51.140;4.088;2024-03-08T10:55:44;15.50;68.30
32217;DHT22;67098;51.140;4.088;2024-03-08T10:58:10;15.70;67.60
32217;DHT22;67098;51.140;4.088;2024-03-08T11:00:36;15.90;66.30
32217;DHT22;67098;51.140;4.088;2024-03-08T11:03:06;16.10;66.90
32217;DHT22;67098;51.140;4.088;2024-03-08T11:05:41;16.10;65.50
32217;DHT22;67098;51.140;4.088;2024-03-08T11:08:20;16.00;66.00
32217;DHT22;67098;51.140;4.088;2024-03-08T11:10:52;16.30;66.20
32217;DHT22;67098;51.140;4.088;2024-03-08T11:13:37;16.70;65.60
32217;DHT22;67098;51.140;4.088;2024-03-08T11:19:45;17.40;63.90
32217;DHT22;67098;51.140;4.088;2024-03-08T11:21:45;17.70;62.40
32217;DHT22;67098;51.140;4.088;2024-03-08T11:24:14;17.90;61.90
32217;DHT22;67098;51.140;4.088;2024-03-08T11:26:42;18.00;61.70
32217;DHT22;67098;51.140;4.088;2024-03-08T11:32:09;18.20;61.70
32217;DHT22;67098;51.140;4.088;2024-03-08T11:34:36;18.50;61.40
32217;DHT22;67098;51.140;4.088;2024-03-08T11:37:08;18.30;60.60
32217;DHT22;67098;51.140;4.088;2024-03-08T11:39:39;18.00;60.20
32217;DHT22;67098;51.140;4.088;2024-03-08T11:42:05;18.10;60.40
32217;DHT22;67098;51.140;4.088;2024-03-08T11:44:32;18.20;61.10
32217;DHT22;67098;51.140;4.088;2024-03-08T11:47:01;18.40;60.70
32217;DHT22;67098;51.140;4.088;2024-03-08T11:49:27;18.70;60.30
32217;DHT22;67098;51.140;4.088;2024-03-08T11:51:53;18.50;59.40
32217;DHT22;67098;51.140;4.088;2024-03-08T11:54:19;18.70;60.40
32217;DHT22;67098;51.140;4.088;2024-03-08T11:56:45;18.80;59.60
32217;DHT22;67098;51.140;4.088;2024-03-08T11:59:14;18.80;59.00
32217;DHT22;67098;51.140;4.088;2024-03-08T12:01:40;19.00;59.30
32217;DHT22;67098;51.140;4.088;2024-03-08T12:04:06;19.20;58.30
32217;DHT22;67098;51.140;4.088;2024-03-08T12:06:39;19.40;57.80
32217;DHT22;67098;51.140;4.088;2024-03-08T12:09:09;19.60;58.40
32217;DHT22;67098;51.140;4.088;2024-03-08T12:11:36;19.80;57.00
32217;DHT22;67098;51.140;4.088;2024-03-08T12:14:03;19.90;57.20
32217;DHT22;67098;51.140;4.088;2024-03-08T12:16:41;20.20;57.50
32217;DHT22;67098;51.140;4.088;2024-03-08T12:19:08;20.40;57.00
32217;DHT22;67098;51.140;4.088;2024-03-08T12:21:35;20.30;56.60
32217;DHT22;67098;51.140;4.088;2024-03-08T12:24:06;20.50;56.50
32217;DHT22;67098;51.140;4.088;2024-03-08T12:26:37;20.70;56.50
32217;DHT22;67098;51.140;4.088;2024-03-08T12:31:57;20.60;55.50
32217;DHT22;67098;51.140;4.088;2024-03-08T12:34:24;20.70;56.30
32217;DHT22;67098;51.140;4.088;2024-03-08T12:36:52;20.60;55.80
32217;DHT22;67098;51.140;4.088;2024-03-08T12:39:22;20.50;55.70
32217;DHT22;67098;51.140;4.088;2024-03-08T12:41:52;20.60;56.50
32217;DHT22;67098;51.140;4.088;2024-03-08T12:44:19;20.80;55.80
32217;DHT22;67098;51.140;4.088;2024-03-08T12:46:47;21.00;55.30
32217;DHT22;67098;51.140;4.088;2024-03-08T12:49:14;21.00;54.70
32217;DHT22;67098;51.140;4.088;2024-03-08T12:51:46;21.10;54.80
32217;DHT22;67098;51.140;4.088;2024-03-08T12:54:12;21.20;54.60
32217;DHT22;67098;51.140;4.088;2024-03-08T12:56:38;21.30;54.30
32217;DHT22;67098;51.140;4.088;2024-03-08T12:59:06;21.50;54.50
32217;DHT22;67098;51.140;4.088;2024-03-08T13:01:34;21.40;54.10
32217;DHT22;67098;51.140;4.088;2024-03-08T13:04:03;21.50;53.90
32217;DHT22;67098;51.140;4.088;2024-03-08T13:06:29;21.40;54.00
32217;DHT22;67098;51.140;4.088;2024-03-08T13:08:56;21.40;54.20
32217;DHT22;67098;51.140;4.088;2024-03-08T13:11:24;21.30;53.70
32217;DHT22;67098;51.140;4.088;2024-03-08T13:13:51;21.30;53.20
32217;DHT22;67098;51.140;4.088;2024-03-08T13:16:18;21.20;53.50
32217;DHT22;67098;51.140;4.088;2024-03-08T13:18:45;20.70;53.60
32217;DHT22;67098;51.140;4.088;2024-03-08T13:21:14;20.80;54.50
32217;DHT22;67098;51.140;4.088;2024-03-08T13:23:42;21.00;53.90
32217;DHT22;67098;51.140;4.088;2024-03-08T13:26:13;21.20;54.20
32217;DHT22;67098;51.140;4.088;2024-03-08T13:28:47;21.20;53.80
32217;DHT22;67098;51.140;4.088;2024-03-08T13:31:14;21.20;53.50
32217;DHT22;67098;51.140;4.088;2024-03-08T13:33:41;21.10;54.20
32217;DHT22;67098;51.140;4.088;2024-03-08T13:36:08;21.00;54.30
32217;DHT22;67098;51.140;4.088;2024-03-08T13:38:47;20.80;54.40
32217;DHT22;67098;51.140;4.088;2024-03-08T13:41:14;20.80;54.10
32217;DHT22;67098;51.140;4.088;2024-03-08T13:43:42;20.80;54.40
32217;DHT22;67098;51.140;4.088;2024-03-08T13:46:09;21.10;54.70
32217;DHT22;67098;51.140;4.088;2024-03-08T13:48:37;21.30;54.50
32217;DHT22;67098;51.140;4.088;2024-03-08T13:51:07;21.60;54.60
32217;DHT22;67098;51.140;4.088;2024-03-08T13:53:34;21.00;54.10
32217;DHT22;67098;51.140;4.088;2024-03-08T13:56:03;20.80;54.60
32217;DHT22;67098;51.140;4.088;2024-03-08T13:58:29;20.90;55.20
32217;DHT22;67098;51.140;4.088;2024-03-08T14:00:55;20.80;54.80
32217;DHT22;67098;51.140;4.088;2024-03-08T14:03:21;21.10;54.50
32217;DHT22;67098;51.140;4.088;2024-03-08T14:05:48;21.30;54.80
32217;DHT22;67098;51.140;4.088;2024-03-08T14:08:14;21.20;54.20
32217;DHT22;67098;51.140;4.088;2024-03-08T14:10:41;21.60;54.30
32217;DHT22;67098;51.140;4.088;2024-03-08T14:13:08;21.80;53.90
32217;DHT22;67098;51.140;4.088;2024-03-08T14:15:34;21.90;53.60
32217;DHT22;67098;51.140;4.088;2024-03-08T14:18:01;21.80;53.30
32217;DHT22;67098;51.140;4.088;2024-03-08T14:20:27;21.60;53.50
32217;DHT22;67098;51.140;4.088;2024-03-08T14:22:56;21.50;53.90
32217;DHT22;67098;51.140;4.088;2024-03-08T14:25:23;20.70;54.10
32217;DHT22;67098;51.140;4.088;2024-03-08T14:27:53;20.30;55.20
32217;DHT22;67098;51.140;4.088;2024-03-08T14:30:20;20.30;55.00
32217;DHT22;67098;51.140;4.088;2024-03-08T14:33:07;20.10;55.40
32217;DHT22;67098;51.140;4.088;2024-03-08T14:35:40;20.00;55.90
32217;DHT22;67098;51.140;4.088;2024-03-08T14:38:06;20.20;55.60
32217;DHT22;67098;51.140;4.088;2024-03-08T14:40:39;20.30;55.30
32217;DHT22;67098;51.140;4.088;2024-03-08T14:43:06;19.50;55.90
32217;DHT22;67098;51.140;4.088;2024-03-08T14:45:31;19.50;56.50
32217;DHT22;67098;51.140;4.088;2024-03-08T14:47:57;19.60;56.70
32217;DHT22;67098;51.140;4.088;2024-03-08T14:50:24;19.70;55.80
32217;DHT22;67098;51.140;4.088;2024-03-08T14:52:52;20.00;56.40
32217;DHT22;67098;51.140;4.088;2024-03-08T14:55:18;20.10;56.00
32217;DHT22;67098;51.140;4.088;2024-03-08T14:57:51;20.00;56.40
32217;DHT22;67098;51.140;4.088;2024-03-08T15:00:19;20.00;55.80
32217;DHT22;67098;51.140;4.088;2024-03-08T15:03:01;20.00;55.70
32217;DHT22;67098;51.140;4.088;2024-03-08T15:05:28;19.80;55.50
32217;DHT22;67098;51.140;4.088;2024-03-08T15:07:54;19.80;56.10
32217;DHT22;67098;51.140;4.088;2024-03-08T15:10:21;19.70;56.60
32217;DHT22;67098;51.140;4.088;2024-03-08T15:12:50;19.70;56.70
32217;DHT22;67098;51.140;4.088;2024-03-08T15:15:20;19.50;56.40
32217;DHT22;67098;51.140;4.088;2024-03-08T15:17:48;19.50;56.10
32217;DHT22;67098;51.140;4.088;2024-03-08T15:20:15;19.60;56.20
32217;DHT22;67098;51.140;4.088;2024-03-08T15:22:43;19.50;56.20
32217;DHT22;67098;51.140;4.088;2024-03-08T15:25:10;19.40;56.20
32217;DHT22;67098;51.140;4.088;2024-03-08T15:27:38;19.30;56.60
32217;DHT22;67098;51.140;4.088;2024-03-08T15:30:07;19.40;56.70
32217;DHT22;67098;51.140;4.088;2024-03-08T15:32:40;19.40;56.90
32217;DHT22;67098;51.140;4.088;2024-03-08T15:35:09;19.40;56.70
32217;DHT22;67098;51.140;4.088;2024-03-08T15:37:42;19.20;56.30
32217;DHT22;67098;51.140;4.088;2024-03-08T15:40:12;19.00;56.80
32217;DHT22;67098;51.140;4.088;2024-03-08T15:42:48;18.80;57.10
32217;DHT22;67098;51.140;4.088;2024-03-08T15:45:16;18.60;57.40
32217;DHT22;67098;51.140;4.088;2024-03-08T15:47:42;18.40;57.70
32217;DHT22;67098;51.140;4.088;2024-03-08T15:50:10;18.00;58.20
32217;DHT22;67098;51.140;4.088;2024-03-08T15:52:43;17.90;59.10